createdAt,value
2019-04-16T00:02:03.844Z,4.2
2019-04-16T00:07:34.802Z,3.8
2019-04-16T00:13:05.846Z,3.6
2019-04-16T00:18:36.734Z,4
2019-04-16T00:24:07.742Z,4.4
2019-04-16T00:29:39.680Z,4.5
2019-04-16T00:35:09.714Z,4.3
2019-04-16T00:40:40.604Z,4.2
2019-04-16T00:46:12.227Z,4.8
2019-04-16T00:51:42.592Z,4.2
2019-04-16T00:57:17.622Z,4.5
2019-04-16T01:02:46.889Z,4.1
2019-04-16T01:08:15.460Z,4
2019-04-16T01:13:46.424Z,3.7
2019-04-16T01:19:17.332Z,3.1
2019-04-16T01:24:51.332Z,2.9
2019-04-16T01:30:19.164Z,2.7
2019-04-16T01:35:51.469Z,2.8
2019-04-16T01:41:21.904Z,2.9
2019-04-16T01:46:51.772Z,3.1
2019-04-16T01:52:22.600Z,3.1
2019-04-16T01:57:53.483Z,3.1
2019-04-16T02:03:24.420Z,3.2
2019-04-16T02:08:55.233Z,3.2
2019-04-16T02:14:26.031Z,3
2019-04-16T02:19:56.898Z,3.2
2019-04-16T02:25:27.830Z,3.8
2019-04-16T02:30:58.740Z,3.6
2019-04-16T02:36:29.651Z,3.4
2019-04-16T02:42:00.871Z,3.2
2019-04-16T02:47:31.884Z,3.1
2019-04-16T02:53:02.363Z,2.6
2019-04-16T02:58:34.274Z,2.7
2019-04-16T03:04:04.175Z,2.7
2019-04-16T03:09:39.715Z,2.8
2019-04-16T03:15:05.901Z,3.2
2019-04-16T03:20:36.839Z,3.3
2019-04-16T03:26:07.804Z,3
2019-04-16T03:31:38.719Z,3.1
2019-04-16T03:37:09.621Z,3.4
2019-04-16T03:42:40.563Z,3.2
2019-04-16T03:48:11.552Z,3.1
2019-04-16T03:53:42.462Z,2.9
2019-04-16T03:59:13.365Z,2.6
2019-04-16T04:04:44.338Z,2.9
2019-04-16T04:10:28.955Z,3.3
2019-04-16T04:15:46.194Z,3.8
2019-04-16T04:21:20.892Z,3.4
2019-04-16T04:26:48.025Z,3.4
2019-04-16T04:32:19.003Z,3.5
2019-04-16T04:37:49.895Z,3.2
2019-04-16T04:43:20.921Z,3.3
2019-04-16T04:48:54.892Z,3.4
2019-04-16T04:54:23.478Z,3.6
2019-04-16T04:59:53.749Z,3.6
2019-04-16T05:05:25.717Z,3.7
2019-04-16T05:10:59.046Z,3.8
2019-04-16T05:16:26.697Z,4
2019-04-16T05:21:57.779Z,4
2019-04-16T05:27:29.851Z,4
2019-04-16T05:33:04.844Z,4.4
2019-04-16T05:38:31.425Z,4.6
2019-04-16T05:44:02.535Z,4.6
2019-04-16T05:49:33.693Z,4.3
2019-04-16T05:55:04.783Z,4.5
2019-04-16T06:00:38.450Z,4.6
2019-04-16T06:06:07.918Z,4.1
2019-04-16T06:11:39.917Z,4.2
2019-04-16T06:17:11.856Z,4.4
2019-04-16T06:22:44.111Z,4.4
2019-04-16T06:28:15.997Z,4.4
2019-04-16T06:33:48.103Z,4.7
2019-04-16T06:39:20.159Z,4.9
2019-04-16T06:44:52.338Z,5.2
2019-04-16T06:50:31.816Z,5.6
2019-04-16T06:55:56.983Z,5.7
2019-04-16T07:01:29.316Z,5.8
2019-04-16T07:07:01.672Z,6.1
2019-04-16T07:12:37.879Z,6.7
2019-04-16T07:18:06.704Z,7.5
2019-04-16T07:23:39.270Z,7.1
2019-04-16T07:29:11.591Z,7.7
2019-04-16T07:34:44.293Z,7.3
2019-04-16T07:40:17.110Z,7.2
2019-04-16T07:45:49.838Z,7.2
2019-04-16T07:51:22.583Z,7.3
2019-04-16T07:56:55.191Z,7.3
2019-04-16T08:02:27.908Z,7.6
2019-04-16T08:08:00.713Z,8.1
2019-04-16T08:13:34.321Z,7.8
2019-04-16T08:19:05.742Z,8.6
2019-04-16T08:24:38.218Z,8.2
2019-04-16T08:30:11.092Z,8.3
2019-04-16T08:35:43.230Z,8.9
2019-04-16T08:41:19.678Z,8.9
2019-04-16T08:46:48.350Z,9.4
2019-04-16T08:52:19.826Z,9.1
2019-04-16T08:57:52.118Z,10.3
2019-04-16T09:03:26.754Z,10.1
2019-04-16T09:09:11.041Z,11.3
2019-04-16T09:14:31.610Z,10.5
2019-04-16T09:20:06.365Z,11.7
2019-04-16T09:25:38.973Z,13.3
2019-04-16T09:31:13.015Z,12.3
2019-04-16T09:36:46.995Z,12.4
2019-04-16T09:42:20.910Z,12
2019-04-16T09:47:54.788Z,11.9
2019-04-16T09:53:33.893Z,11.9
2019-04-16T09:59:02.395Z,11.7
2019-04-16T10:04:36.060Z,12
2019-04-16T10:10:09.612Z,11.9
2019-04-16T10:15:43.442Z,12.4
2019-04-16T10:21:19.606Z,12.3
2019-04-16T10:26:51.137Z,12.5
2019-04-16T10:32:25.007Z,12.6
2019-04-16T10:37:58.903Z,12
2019-04-16T10:43:43.791Z,13.4
2019-04-16T10:49:06.623Z,12.9
2019-04-16T10:54:40.659Z,13.2
2019-04-16T11:00:14.813Z,13.6
2019-04-16T11:05:48.663Z,13.1
2019-04-16T11:11:22.699Z,13.7
2019-04-16T11:16:56.835Z,13.3
2019-04-16T11:22:30.854Z,13.6
2019-04-16T11:28:04.766Z,13.9
2019-04-16T11:33:38.824Z,13.3
2019-04-16T11:39:12.785Z,13.7
2019-04-16T11:44:50.108Z,13.7
2019-04-16T11:50:20.936Z,13.3
2019-04-16T11:55:55.193Z,13.6
2019-04-16T12:01:28.740Z,13.7
2019-04-16T12:07:05.285Z,13.4
2019-04-16T12:12:36.421Z,13.3
2019-04-16T12:18:09.995Z,13.3
2019-04-16T12:23:43.692Z,13.4
2019-04-16T12:29:17.216Z,13.3
2019-04-16T12:34:51.258Z,13.3
2019-04-16T12:40:24.436Z,13.2
2019-04-16T12:45:57.993Z,13
2019-04-16T12:51:32.342Z,13.1
2019-04-16T12:57:04.919Z,13.1
2019-04-16T13:02:38.289Z,13
2019-04-16T13:08:11.689Z,13
2019-04-16T13:13:44.943Z,12.8
2019-04-16T13:19:18.313Z,12.9
2019-04-16T13:24:51.604Z,12.7
2019-04-16T13:30:24.928Z,12.8
2019-04-16T13:35:58.212Z,12.9
2019-04-16T13:41:31.617Z,12.8
2019-04-16T13:47:04.960Z,13
2019-04-16T13:52:40.168Z,12.8
2019-04-16T13:58:11.652Z,12.9
2019-04-16T14:03:45.019Z,12.8
2019-04-16T14:09:18.336Z,13
2019-04-16T14:14:51.668Z,12.8
2019-04-16T14:20:25.094Z,12.8
2019-04-16T14:25:58.668Z,12.7
2019-04-16T14:31:31.670Z,12.6
2019-04-16T14:37:04.835Z,12.5
2019-04-16T14:42:38.044Z,12.5
2019-04-16T14:48:11.280Z,12.5
2019-04-16T14:53:44.539Z,12.4
2019-04-16T14:59:30.228Z,12.5
2019-04-16T15:04:50.977Z,12.5
2019-04-16T15:10:24.126Z,12.6
2019-04-16T15:16:06.551Z,12.5
2019-04-16T15:21:30.585Z,12.4
2019-04-16T15:27:03.725Z,12.4
2019-04-16T15:32:36.913Z,12.3
2019-04-16T15:38:10.014Z,12.1
2019-04-16T15:43:43.143Z,11.9
2019-04-16T15:49:16.241Z,11.7
2019-04-16T15:54:49.249Z,11.4
2019-04-16T16:00:22.139Z,11.4
2019-04-16T16:05:55.148Z,11.3
2019-04-16T16:11:28.007Z,11.2
2019-04-16T16:17:00.866Z,11.2
2019-04-16T16:22:33.684Z,11
2019-04-16T16:28:06.481Z,10.9
2019-04-16T16:33:41.797Z,10.8
2019-04-16T16:39:12.085Z,10.6
2019-04-16T16:44:44.796Z,10.5
2019-04-16T16:50:17.502Z,10.4
2019-04-16T16:55:49.977Z,10.3
2019-04-16T17:06:54.717Z,10.1
2019-04-16T17:12:27.031Z,10
2019-04-16T17:17:58.907Z,10
2019-04-16T17:23:30.676Z,9.9
2019-04-16T17:29:03.312Z,9.8
2019-04-16T17:34:38.603Z,9.7
2019-04-16T17:40:08.176Z,9.6
2019-04-16T17:45:40.706Z,9.5
2019-04-16T17:51:13.104Z,9.4
2019-04-16T17:56:45.140Z,9.4
2019-04-16T18:02:17.190Z,9.3
2019-04-16T18:07:49.293Z,9.3
2019-04-16T18:13:21.255Z,9.3
2019-04-16T18:18:53.409Z,9.2
2019-04-16T18:24:24.928Z,9.2
2019-04-16T18:29:57.142Z,9.2
2019-04-16T18:35:29.563Z,9.2
2019-04-16T18:41:03.916Z,9.2
2019-04-16T18:46:33.696Z,9.2
2019-04-16T18:51:58.770Z,9.1
2019-04-16T18:57:30.391Z,9.1
2019-04-16T19:03:02.243Z,9
2019-04-16T19:08:41.268Z,9
2019-04-16T19:14:05.010Z,8.9
2019-04-16T19:19:36.617Z,8.9
2019-04-16T19:25:08.929Z,8.9
2019-04-16T19:30:39.645Z,8.8
2019-04-16T19:36:11.194Z,8.8
2019-04-16T19:41:42.811Z,8.8
2019-04-16T19:47:14.308Z,8.6
2019-04-16T19:52:45.909Z,8.6
2019-04-16T19:58:17.478Z,8.6
2019-04-16T20:03:49.008Z,8.5
2019-04-16T20:09:14.578Z,8.4
2019-04-16T20:14:46.102Z,8.3
2019-04-16T20:20:17.626Z,8.3
2019-04-16T20:25:49.220Z,8.3
2019-04-16T20:31:20.785Z,8.3
2019-04-16T20:36:54.990Z,8.4
2019-04-16T20:42:23.890Z,8.4
2019-04-16T20:47:55.398Z,8.4
2019-04-16T20:53:26.936Z,8.4
2019-04-16T20:59:03.085Z,8.5
2019-04-16T21:04:30.071Z,8.4
2019-04-16T21:10:03.490Z,8.3
2019-04-16T21:15:33.118Z,8.4
2019-04-16T21:21:04.637Z,8.4
2019-04-16T21:26:36.101Z,8.3
2019-04-16T21:32:10.071Z,8.4
2019-04-16T21:37:39.270Z,8.3
2019-04-16T21:43:10.682Z,8.4
2019-04-16T21:48:42.274Z,8.4
2019-04-16T21:54:13.734Z,8.4
2019-04-16T21:59:45.250Z,8.5
2019-04-16T22:05:17.764Z,8.4
2019-04-16T22:10:48.288Z,8.4
2019-04-16T22:16:19.766Z,8.4
2019-04-16T22:21:51.296Z,8.4
2019-04-16T22:27:22.827Z,8.4
2019-04-16T22:32:48.064Z,8.4
2019-04-16T22:38:19.546Z,8.2
2019-04-16T22:43:51.098Z,8.2
2019-04-16T22:49:23.266Z,8.2
2019-04-16T22:54:54.113Z,8.2
2019-04-16T23:00:25.615Z,8.2
2019-04-16T23:05:57.023Z,8.1
2019-04-16T23:11:28.610Z,8.1
2019-04-16T23:17:00.076Z,8
2019-04-16T23:22:31.561Z,8
2019-04-16T23:28:03.075Z,8
2019-04-16T23:33:34.603Z,8
2019-04-16T23:39:06.096Z,7.9
2019-04-16T23:44:37.571Z,7.9
2019-04-16T23:50:09.181Z,7.9
2019-04-16T23:55:40.503Z,8
